Petersburg, Virginia
Current Conditions -  °F | °C
As of 3:15 AM on Friday 24 Oct 2014 (Local Time) from KPTB Reporting Station
Unknown Precip Unknown Precip  
Wind Chill: 44°   Ceiling: Unl
Heat Index: 47°   Visibility: 10mi
Dew Point: 41°   Wind: 8mph
Humidity: 79%   Direction: 260°W
Pressure: 29.97"   Gusts: NA
Location:  37.23°N, 77.4°W
Report Text: KPTB 240715Z AUTO 26007KT 10SM UP CLR 09/05 A2997 RMK AO2 T00860052
Loading
Personal Weather Stations






























Interactive Weather Map
Tropical Storm Tracking
New forecast layout! Learn more

10-Day Weather Forecast

Advertisements
Track Severe Weather on mobile